sensor_id;sensor_type;location;lat;lon;timestamp;temperature;humidity
1079;DHT22;528;47.872;11.478;2022-10-16T10:00:35;26.10;98.30
1079;DHT22;528;47.872;11.478;2022-10-16T10:03:10;26.20;97.70
1079;DHT22;528;47.872;11.478;2022-10-16T10:05:41;26.10;97.70
1079;DHT22;528;47.872;11.478;2022-10-16T10:08:22;26.20;97.10
1079;DHT22;528;47.872;11.478;2022-10-16T10:11:02;26.30;98.80
1079;DHT22;528;47.872;11.478;2022-10-16T10:13:30;26.40;99.90
1079;DHT22;528;47.872;11.478;2022-10-16T10:16:00;26.50;99.90
1079;DHT22;528;47.872;11.478;2022-10-16T10:18:28;26.50;99.70
1079;DHT22;528;47.872;11.478;2022-10-16T10:20:58;26.70;99.90
1079;DHT22;528;47.872;11.478;2022-10-16T10:23:28;26.70;99.90
1079;DHT22;528;47.872;11.478;2022-10-16T10:25:59;26.80;96.10
1079;DHT22;528;47.872;11.478;2022-10-16T10:28:52;26.90;96.80
1079;DHT22;528;47.872;11.478;2022-10-16T10:31:42;27.00;98.50
1079;DHT22;528;47.872;11.478;2022-10-16T10:34:35;27.10;96.50
1079;DHT22;528;47.872;11.478;2022-10-16T10:37:23;27.10;99.90
1079;DHT22;528;47.872;11.478;2022-10-16T10:40:15;27.10;99.90
1079;DHT22;528;47.872;11.478;2022-10-16T10:42:53;26.90;95.50
1079;DHT22;528;47.872;11.478;2022-10-16T11:04:20;27.10;95.40
1079;DHT22;528;47.872;11.478;2022-10-16T11:06:57;27.10;97.00
1079;DHT22;528;47.872;11.478;2022-10-16T11:09:30;27.10;96.20
1079;DHT22;528;47.872;11.478;2022-10-16T11:12:02;27.20;96.50
1079;DHT22;528;47.872;11.478;2022-10-16T11:14:35;27.20;95.40
1079;DHT22;528;47.872;11.478;2022-10-16T11:17:10;27.30;96.70
1079;DHT22;528;47.872;11.478;2022-10-16T11:19:45;27.30;95.90
1079;DHT22;528;47.872;11.478;2022-10-16T11:22:19;27.30;95.40
1079;DHT22;528;47.872;11.478;2022-10-16T11:24:50;27.30;95.80
1079;DHT22;528;47.872;11.478;2022-10-16T11:27:21;27.20;95.50
1079;DHT22;528;47.872;11.478;2022-10-16T11:29:56;27.30;92.80
1079;DHT22;528;47.872;11.478;2022-10-16T11:32:28;27.30;91.30
1079;DHT22;528;47.872;11.478;2022-10-16T11:35:02;27.40;92.80
1079;DHT22;528;47.872;11.478;2022-10-16T11:37:36;27.40;93.70
1079;DHT22;528;47.872;11.478;2022-10-16T11:40:17;27.50;93.90
1079;DHT22;528;47.872;11.478;2022-10-16T11:42:50;27.40;92.20
1079;DHT22;528;47.872;11.478;2022-10-16T11:45:27;27.30;94.30
1079;DHT22;528;47.872;11.478;2022-10-16T11:48:02;27.30;91.30
1079;DHT22;528;47.872;11.478;2022-10-16T11:50:35;27.20;93.90
1079;DHT22;528;47.872;11.478;2022-10-16T11:53:11;27.20;94.10
1079;DHT22;528;47.872;11.478;2022-10-16T11:55:42;27.20;93.50
1079;DHT22;528;47.872;11.478;2022-10-16T11:58:16;27.10;90.30
1079;DHT22;528;47.872;11.478;2022-10-16T12:00:50;27.00;91.40
1079;DHT22;528;47.872;11.478;2022-10-16T12:03:22;27.00;90.20
1079;DHT22;528;47.872;11.478;2022-10-16T12:06:02;27.00;90.60
1079;DHT22;528;47.872;11.478;2022-10-16T12:08:33;27.00;91.60
1079;DHT22;528;47.872;11.478;2022-10-16T12:11:07;26.90;91.80
1079;DHT22;528;47.872;11.478;2022-10-16T12:13:36;26.80;91.70
1079;DHT22;528;47.872;11.478;2022-10-16T12:16:20;26.70;92.10
1079;DHT22;528;47.872;11.478;2022-10-16T12:18:48;26.60;92.10
1079;DHT22;528;47.872;11.478;2022-10-16T12:21:18;26.50;91.90
1079;DHT22;528;47.872;11.478;2022-10-16T12:23:50;26.40;92.70
1079;DHT22;528;47.872;11.478;2022-10-16T12:26:24;26.40;92.70
1079;DHT22;528;47.872;11.478;2022-10-16T12:28:52;26.30;90.80
1079;DHT22;528;47.872;11.478;2022-10-16T12:31:20;26.30;91.60
1079;DHT22;528;47.872;11.478;2022-10-16T12:33:59;26.20;85.40
1079;DHT22;528;47.872;11.478;2022-10-16T12:36:30;26.10;91.10
1079;DHT22;528;47.872;11.478;2022-10-16T12:38:59;26.10;91.50
1079;DHT22;528;47.872;11.478;2022-10-16T12:41:29;26.10;91.00
1079;DHT22;528;47.872;11.478;2022-10-16T12:46:54;26.00;91.20
1079;DHT22;528;47.872;11.478;2022-10-16T14:34:24;23.30;95.50
1079;DHT22;528;47.872;11.478;2022-10-16T14:37:14;23.20;94.70
1079;DHT22;528;47.872;11.478;2022-10-16T15:12:37;22.60;97.90
1079;DHT22;528;47.872;11.478;2022-10-16T15:15:25;22.50;98.30
1079;DHT22;528;47.872;11.478;2022-10-16T15:17:55;22.50;98.80
1079;DHT22;528;47.872;11.478;2022-10-16T17:13:05;18.70;99.90
1079;DHT22;528;47.872;11.478;2022-10-16T17:16:29;18.70;99.90
1079;DHT22;528;47.872;11.478;2022-10-16T17:19:17;18.60;99.90
1079;DHT22;528;47.872;11.478;2022-10-16T17:22:33;18.40;99.90
1079;DHT22;528;47.872;11.478;2022-10-16T17:25:41;18.30;99.90
1079;DHT22;528;47.872;11.478;2022-10-16T17:29:30;18.30;99.90
1079;DHT22;528;47.872;11.478;2022-10-16T17:32:13;18.20;99.90
1079;DHT22;528;47.872;11.478;2022-10-16T17:35:37;18.10;99.90
1079;DHT22;528;47.872;11.478;2022-10-16T17:39:14;18.00;99.90
1079;DHT22;528;47.872;11.478;2022-10-16T17:55:41;17.60;99.90
1079;DHT22;528;47.872;11.478;2022-10-16T17:58:25;17.60;99.90
